createdAt,value
2022-08-25T00:01:23.825Z,74.88
2022-08-25T00:03:55.237Z,74.17
2022-08-25T00:06:24.324Z,74.31
2022-08-25T00:08:51.532Z,72.29
2022-08-25T00:11:21.993Z,75.22
2022-08-25T00:13:53.391Z,75.46
2022-08-25T00:16:22.164Z,75.36
2022-08-25T00:18:53.285Z,75.28
2022-08-25T00:21:20.557Z,75.70
2022-08-25T00:23:48.003Z,75.49
2022-08-25T00:26:16.332Z,75.91
2022-08-25T00:28:43.921Z,75.69
2022-08-25T00:31:16.437Z,75.73
2022-08-25T00:33:44.796Z,76.16
2022-08-25T00:36:12.630Z,76.40
2022-08-25T00:38:40.981Z,76.57
2022-08-25T00:41:11.292Z,75.68
2022-08-25T00:43:41.161Z,76.23
2022-08-25T00:46:09.568Z,77.26
2022-08-25T00:48:38.849Z,76.30
2022-08-25T00:51:08.014Z,75.29
2022-08-25T00:53:35.005Z,77.40
2022-08-25T00:56:02.692Z,77.41
2022-08-25T00:58:32.042Z,77.40
2022-08-25T01:00:59.863Z,77.07
2022-08-25T01:03:33.544Z,76.67
2022-08-25T01:06:04.877Z,76.38
2022-08-25T01:08:33.277Z,76.56
2022-08-25T01:11:05.009Z,76.53
2022-08-25T01:13:38.335Z,78.29
2022-08-25T01:16:05.458Z,77.96
2022-08-25T01:18:45.341Z,78.63
2022-08-25T01:21:13.161Z,78.44
2022-08-25T01:23:40.217Z,78.62
2022-08-25T01:26:21.277Z,79.08
2022-08-25T01:29:17.665Z,79.62
2022-08-25T01:31:45.290Z,80.11
2022-08-25T01:34:13.478Z,80.19
2022-08-25T01:36:43.475Z,75.01
2022-08-25T01:39:12.282Z,78.57
2022-08-25T01:41:54.591Z,77.97
2022-08-25T01:44:21.496Z,79.16
2022-08-25T01:46:48.539Z,78.95
2022-08-25T01:49:15.362Z,80.09
2022-08-25T01:51:53.289Z,79.60
2022-08-25T01:54:20.165Z,79.21
2022-08-25T01:56:47.423Z,80.48
2022-08-25T01:59:24.223Z,79.34
2022-08-25T02:01:59.654Z,77.48
2022-08-25T02:04:32.309Z,80.88
2022-08-25T02:07:01.588Z,80.16
2022-08-25T02:09:28.906Z,80.69
2022-08-25T02:11:56.882Z,80.88
2022-08-25T02:14:23.947Z,80.79
2022-08-25T02:16:53.478Z,79.30
2022-08-25T02:19:21.929Z,79.28
2022-08-25T02:21:48.930Z,80.44
2022-08-25T02:24:16.930Z,81.09
2022-08-25T02:26:43.956Z,76.50
2022-08-25T02:29:11.357Z,80.37
2022-08-25T02:31:39.304Z,82.55
2022-08-25T02:34:08.055Z,81.74
2022-08-25T02:36:35.150Z,79.48
2022-08-25T02:39:02.252Z,80.60
2022-08-25T02:41:31.792Z,80.93
2022-08-25T02:44:03.526Z,81.88
2022-08-25T02:46:31.234Z,82.62
2022-08-25T02:48:59.094Z,82.73
2022-08-25T02:51:28.634Z,83.50
2022-08-25T02:53:57.638Z,77.69
2022-08-25T02:56:25.973Z,82.65
2022-08-25T02:58:52.988Z,83.61
2022-08-25T03:01:20.816Z,81.71
2022-08-25T03:03:49.585Z,83.13
2022-08-25T03:06:19.508Z,83.82
2022-08-25T03:08:46.503Z,83.88
2022-08-25T03:11:13.478Z,84.00
2022-08-25T03:13:40.793Z,82.20
2022-08-25T03:16:10.874Z,83.98
2022-08-25T03:18:40.114Z,84.91
2022-08-25T03:21:07.487Z,84.32
2022-08-25T03:23:35.174Z,82.18
2022-08-25T03:26:20.870Z,83.41
2022-08-25T03:28:47.838Z,81.98
2022-08-25T03:31:14.841Z,83.81
2022-08-25T03:33:43.022Z,82.84
2022-08-25T03:36:12.171Z,84.50
2022-08-25T03:38:41.800Z,85.15
2022-08-25T03:41:17.344Z,84.57
2022-08-25T03:43:44.572Z,84.21
2022-08-25T03:46:24.124Z,84.39
2022-08-25T03:48:52.131Z,84.53
2022-08-25T03:51:31.275Z,84.98
2022-08-25T03:53:59.113Z,85.29
2022-08-25T03:56:27.618Z,85.45
2022-08-25T03:58:55.419Z,85.25
2022-08-25T04:01:23.039Z,85.48
2022-08-25T04:03:50.283Z,85.12
2022-08-25T04:06:18.953Z,85.07
2022-08-25T04:08:46.482Z,85.43
2022-08-25T04:11:17.765Z,84.76
2022-08-25T04:13:46.335Z,84.66
2022-08-25T04:16:15.789Z,84.30
2022-08-25T04:18:43.133Z,83.50
2022-08-25T04:21:11.004Z,84.69
2022-08-25T04:23:43.213Z,84.49
2022-08-25T04:26:16.380Z,85.08
2022-08-25T04:28:43.282Z,85.26
2022-08-25T04:31:12.382Z,84.94
2022-08-25T04:33:39.362Z,85.26
2022-08-25T04:36:11.926Z,85.84
2022-08-25T04:38:41.044Z,86.15
2022-08-25T04:41:10.699Z,86.46
2022-08-25T04:43:39.089Z,86.82
2022-08-25T04:46:08.031Z,86.08
2022-08-25T04:48:35.360Z,86.22
2022-08-25T04:51:09.822Z,85.89
2022-08-25T04:53:38.914Z,86.66
2022-08-25T04:56:08.097Z,86.01
2022-08-25T04:58:35.597Z,85.46
2022-08-25T05:01:08.218Z,86.05
2022-08-25T05:03:36.140Z,85.90
2022-08-25T05:06:04.907Z,86.72
2022-08-25T05:08:32.576Z,87.67
2022-08-25T05:11:00.041Z,87.07
2022-08-25T05:13:30.238Z,85.89
2022-08-25T05:16:00.113Z,85.65
2022-08-25T05:18:30.129Z,85.60
2022-08-25T05:21:01.864Z,86.33
2022-08-25T05:23:29.061Z,85.90
2022-08-25T05:25:55.985Z,86.61
2022-08-25T05:28:23.117Z,85.66
2022-08-25T05:30:50.330Z,86.32
2022-08-25T05:33:18.506Z,86.47
2022-08-25T05:35:45.504Z,85.80
2022-08-25T05:38:15.583Z,86.65
2022-08-25T05:40:42.785Z,86.24
2022-08-25T05:43:10.492Z,85.65
2022-08-25T05:45:37.511Z,84.43
2022-08-25T05:48:04.701Z,84.90
2022-08-25T05:50:31.760Z,84.10
2022-08-25T05:52:58.788Z,83.26
2022-08-25T05:55:25.699Z,84.67
2022-08-25T05:57:52.671Z,84.92
2022-08-25T06:00:19.840Z,85.20
2022-08-25T06:02:49.659Z,85.34
2022-08-25T06:05:23.330Z,84.60
2022-08-25T10:37:24.429Z,57.42
2022-08-25T10:40:16.684Z,57.42
2022-08-25T10:43:07.851Z,57.68
2022-08-25T10:45:44.016Z,57.32
2022-08-25T10:48:29.723Z,57.79
2022-08-25T10:51:24.877Z,56.09
2022-08-25T10:54:13.543Z,56.79
2022-08-25T10:56:50.080Z,56.53
2022-08-25T10:59:29.850Z,55.93
2022-08-25T11:02:13.293Z,55.65
2022-08-25T11:04:59.659Z,54.49
2022-08-25T11:07:43.344Z,53.16
2022-08-25T11:10:42.902Z,51.82
2022-08-25T11:13:18.188Z,48.70
2022-08-25T11:16:20.499Z,49.60
2022-08-25T11:19:05.620Z,49.25
2022-08-25T11:21:59.848Z,48.22
2022-08-25T11:25:13.813Z,48.28
2022-08-25T11:27:52.460Z,47.74
2022-08-25T11:30:20.095Z,46.70
2022-08-25T11:32:52.389Z,47.57
2022-08-25T11:35:34.366Z,49.31
2022-08-25T11:38:33.137Z,51.07
2022-08-25T11:41:11.343Z,51.37
2022-08-25T11:44:23.435Z,51.49
2022-08-25T11:47:05.615Z,50.85
2022-08-25T11:50:06.386Z,50.31
2022-08-25T11:52:34.687Z,49.84
2022-08-25T11:55:13.602Z,49.09
2022-08-25T11:57:42.817Z,50.41
2022-08-25T12:00:20.700Z,48.83
2022-08-25T12:02:50.651Z,50.04
2022-08-25T12:05:17.562Z,48.38
2022-08-25T12:07:47.452Z,48.22
2022-08-25T12:10:18.631Z,48.35
2022-08-25T12:12:45.480Z,48.28
2022-08-25T12:15:27.057Z,47.16
2022-08-25T12:18:11.579Z,47.16
2022-08-25T12:20:54.370Z,46.63
2022-08-25T12:23:31.902Z,47.99
2022-08-25T12:26:20.794Z,47.62
2022-08-25T12:28:47.600Z,47.91
2022-08-25T12:31:51.549Z,46.70
2022-08-25T12:34:43.167Z,47.71
2022-08-25T12:37:17.240Z,46.64
2022-08-25T12:40:05.700Z,45.10
2022-08-25T12:42:44.833Z,46.00
2022-08-25T12:45:36.435Z,46.71
2022-08-25T12:48:25.405Z,46.40
2022-08-25T12:50:59.341Z,45.88
2022-08-25T12:53:43.368Z,45.26
2022-08-25T12:56:22.328Z,44.78
2022-08-25T12:59:00.190Z,45.43
2022-08-25T13:01:36.953Z,44.37
2022-08-25T13:04:28.603Z,43.90
2022-08-25T13:07:39.816Z,43.69
2022-08-25T13:10:10.687Z,43.83
2022-08-25T13:12:53.124Z,44.25
2022-08-25T13:15:38.006Z,42.25
2022-08-25T13:18:15.867Z,42.13
2022-08-25T13:20:44.296Z,42.21
2022-08-25T13:23:18.137Z,41.46
2022-08-25T13:25:51.290Z,41.12
2022-08-25T13:28:26.423Z,42.15
2022-08-25T13:30:59.027Z,41.93
2022-08-25T13:33:27.961Z,41.59
2022-08-25T13:36:16.228Z,42.02
2022-08-25T13:38:45.772Z,42.45
2022-08-25T13:41:19.948Z,42.38
2022-08-25T13:43:46.925Z,42.85
2022-08-25T13:46:19.041Z,41.46
2022-08-25T13:48:49.482Z,41.76
2022-08-25T13:51:31.281Z,42.06
2022-08-25T13:54:02.783Z,41.32
2022-08-25T13:56:38.817Z,41.81
2022-08-25T13:59:23.257Z,40.84
2022-08-25T14:01:52.803Z,41.31
2022-08-25T14:04:32.870Z,42.21
2022-08-25T14:07:21.258Z,42.20
2022-08-25T14:10:15.462Z,42.06
2022-08-25T14:12:49.591Z,42.42
2022-08-25T14:15:16.671Z,41.62
2022-08-25T14:17:59.435Z,43.03
2022-08-25T14:20:29.345Z,42.72
2022-08-25T14:22:59.858Z,42.64
2022-08-25T14:25:30.534Z,43.65
2022-08-25T14:28:25.512Z,43.77
2022-08-25T14:30:58.750Z,43.12
2022-08-25T14:33:33.125Z,42.45
2022-08-25T14:36:02.809Z,41.51
2022-08-25T14:38:29.686Z,40.66
2022-08-25T14:40:59.284Z,41.72
2022-08-25T14:43:32.023Z,41.80
2022-08-25T14:46:02.626Z,41.05
2022-08-25T14:48:35.469Z,40.47
2022-08-25T14:51:05.555Z,41.60
2022-08-25T14:53:33.201Z,40.76
2022-08-25T14:56:01.063Z,39.80
2022-08-25T14:58:35.579Z,39.73
2022-08-25T15:01:17.827Z,40.75
2022-08-25T15:03:50.904Z,39.53
2022-08-25T15:06:18.305Z,40.04
2022-08-25T15:09:04.244Z,40.42
2022-08-25T15:11:32.089Z,41.03
2022-08-25T15:14:02.580Z,41.21
2022-08-25T15:16:42.628Z,40.93
2022-08-25T15:19:14.507Z,40.63
2022-08-25T15:21:44.924Z,41.39
2022-08-25T15:24:12.712Z,41.38
2022-08-25T15:26:58.860Z,41.38
2022-08-25T15:29:29.896Z,40.51
2022-08-25T15:31:58.007Z,39.82
2022-08-25T15:34:25.033Z,40.68
2022-08-25T15:36:52.397Z,40.19
2022-08-25T15:39:19.572Z,40.02
2022-08-25T15:41:52.992Z,40.62
2022-08-25T15:44:20.739Z,41.15
2022-08-25T15:46:49.863Z,41.62
2022-08-25T15:49:23.101Z,42.25
2022-08-25T15:51:52.595Z,41.53
2022-08-25T15:54:20.771Z,41.21
2022-08-25T15:56:48.032Z,40.62
2022-08-25T15:59:16.120Z,41.62
2022-08-25T16:01:46.464Z,41.43
2022-08-25T16:04:14.563Z,41.34
2022-08-25T16:06:41.520Z,42.37
2022-08-25T16:09:08.476Z,42.70
2022-08-25T16:11:35.485Z,42.04
2022-08-25T16:14:06.320Z,42.85
2022-08-25T16:16:33.632Z,43.54
2022-08-25T16:19:01.748Z,43.74
2022-08-25T16:21:35.446Z,43.80
2022-08-25T16:24:07.874Z,44.43
2022-08-25T16:26:36.634Z,44.59
2022-08-25T16:29:07.151Z,44.03
2022-08-25T16:31:34.140Z,44.53
2022-08-25T16:34:01.661Z,45.98
2022-08-25T16:36:28.792Z,45.58
2022-08-25T16:38:57.667Z,44.89
2022-08-25T16:41:33.929Z,45.56
2022-08-25T16:44:07.850Z,46.34
2022-08-25T16:46:40.769Z,46.20
2022-08-25T16:49:09.352Z,45.95
2022-08-25T16:51:37.980Z,45.89
2022-08-25T16:54:25.815Z,46.94
2022-08-25T16:56:53.752Z,46.10
2022-08-25T16:59:23.550Z,45.89
2022-08-25T17:01:51.438Z,46.28
2022-08-25T17:04:18.923Z,46.61
2022-08-25T17:06:49.628Z,46.82
2022-08-25T17:09:23.742Z,47.06
2022-08-25T17:11:54.565Z,46.95
2022-08-25T17:14:21.861Z,47.48
2022-08-25T17:16:51.255Z,47.27
2022-08-25T17:19:18.829Z,48.05
2022-08-25T17:21:47.311Z,48.04
2022-08-25T17:24:17.831Z,48.09
2022-08-25T17:26:47.325Z,48.25
2022-08-25T17:29:17.429Z,49.24
2022-08-25T17:31:46.369Z,50.37
2022-08-25T17:34:16.750Z,51.12
2022-08-25T17:36:44.331Z,51.09
2022-08-25T17:39:13.436Z,51.71
2022-08-25T17:41:44.095Z,52.46
2022-08-25T17:44:12.255Z,53.25
2022-08-25T17:46:44.178Z,53.67
2022-08-25T17:49:15.609Z,53.73
2022-08-25T17:51:42.800Z,54.15
2022-08-25T17:54:10.101Z,55.19
2022-08-25T17:56:38.031Z,55.66
2022-08-25T17:59:05.034Z,57.21
2022-08-25T18:01:34.497Z,59.00
2022-08-25T18:04:01.499Z,60.11
2022-08-25T18:06:29.699Z,61.62
2022-08-25T18:08:59.909Z,62.11
2022-08-25T18:11:28.894Z,62.90
2022-08-25T18:13:57.744Z,63.47
2022-08-25T18:16:25.397Z,63.37
2022-08-25T18:18:55.032Z,63.36
2022-08-25T18:21:22.538Z,63.11
2022-08-25T18:23:49.932Z,62.45
2022-08-25T18:26:21.837Z,61.81
2022-08-25T18:28:51.701Z,61.17
2022-08-25T18:31:19.809Z,60.41
2022-08-25T18:33:47.393Z,60.90
2022-08-25T18:36:20.495Z,61.86
2022-08-25T18:39:07.420Z,63.38
2022-08-25T18:41:40.786Z,64.62
2022-08-25T18:44:10.549Z,66.70
2022-08-25T18:46:39.496Z,66.79
2022-08-25T18:49:06.430Z,68.04
2022-08-25T18:51:33.442Z,67.81
2022-08-25T18:54:01.371Z,67.71
2022-08-25T18:56:29.968Z,67.25
2022-08-25T18:58:57.419Z,66.44
2022-08-25T19:01:24.655Z,68.59
2022-08-25T19:03:51.846Z,67.31
2022-08-25T19:06:20.673Z,67.53
2022-08-25T19:08:48.412Z,68.09
2022-08-25T19:11:16.578Z,67.14
2022-08-25T19:13:44.736Z,68.10
2022-08-25T19:16:32.359Z,67.59
2022-08-25T19:19:01.251Z,67.16
2022-08-25T19:21:31.344Z,69.58
2022-08-25T19:23:59.812Z,69.55
2022-08-25T19:26:27.670Z,69.97
2022-08-25T19:28:54.612Z,71.63
2022-08-25T19:31:24.499Z,70.99
2022-08-25T19:33:54.872Z,71.80
2022-08-25T19:36:28.106Z,72.37
2022-08-25T19:38:58.373Z,72.86
2022-08-25T19:41:27.888Z,71.41
2022-08-25T19:43:57.465Z,70.02
2022-08-25T19:46:35.429Z,68.75
2022-08-25T19:49:26.249Z,67.90
2022-08-25T19:51:55.291Z,67.61
2022-08-25T19:54:30.285Z,71.46
2022-08-25T19:56:59.226Z,71.39
2022-08-25T19:59:40.698Z,73.56
2022-08-25T20:02:20.202Z,72.18
2022-08-25T20:04:51.088Z,72.98
2022-08-25T20:07:23.698Z,72.76
2022-08-25T20:09:53.137Z,73.23
2022-08-25T20:12:21.456Z,72.50
2022-08-25T20:14:49.879Z,73.55
2022-08-25T20:17:24.729Z,74.54
2022-08-25T20:19:59.013Z,75.74
2022-08-25T20:22:28.474Z,77.38
2022-08-25T20:25:20.419Z,76.48
2022-08-25T20:27:53.871Z,75.65
2022-08-25T20:30:27.507Z,75.18
2022-08-25T20:32:56.485Z,73.63
2022-08-25T20:35:26.608Z,73.10
2022-08-25T20:37:54.969Z,73.15
2022-08-25T20:40:25.785Z,74.69
2022-08-25T20:42:53.216Z,76.65
2022-08-25T20:45:21.947Z,76.62
2022-08-25T20:47:50.433Z,76.85
2022-08-25T20:50:18.382Z,78.28
2022-08-25T20:52:45.318Z,79.18
2022-08-25T20:55:12.544Z,78.49
2022-08-25T20:57:39.666Z,76.68
2022-08-25T21:00:07.622Z,75.73
2022-08-25T21:02:35.235Z,76.93
2022-08-25T21:05:03.448Z,75.33
2022-08-25T21:07:30.670Z,74.06
2022-08-25T21:09:57.930Z,73.25
2022-08-25T21:12:24.895Z,72.91
2022-08-25T21:14:53.910Z,72.67
2022-08-25T21:17:20.811Z,72.40
2022-08-25T21:22:16.242Z,72.86
2022-08-25T21:24:43.143Z,72.49
2022-08-25T21:27:11.562Z,73.47
2022-08-25T21:29:38.741Z,75.49
2022-08-25T21:32:11.832Z,78.05
2022-08-25T21:34:38.666Z,79.56
2022-08-25T21:37:05.665Z,78.35
2022-08-25T21:39:33.283Z,77.61
2022-08-25T21:42:01.126Z,78.79
2022-08-25T21:44:28.874Z,81.15
2022-08-25T21:46:56.337Z,82.57
2022-08-25T21:49:25.138Z,81.76
2022-08-25T21:52:00.584Z,79.99
2022-08-25T21:54:29.138Z,80.00
2022-08-25T21:56:59.784Z,81.40
2022-08-25T21:59:38.166Z,82.04
2022-08-25T22:02:08.937Z,81.24
2022-08-25T22:04:37.159Z,82.72
2022-08-25T22:07:07.292Z,81.75
2022-08-25T22:09:35.496Z,81.20
2022-08-25T22:12:03.213Z,81.49
2022-08-25T22:14:30.130Z,79.72
2022-08-25T22:16:57.102Z,79.00
2022-08-25T22:19:24.895Z,78.55
2022-08-25T22:21:53.565Z,80.41
2022-08-25T22:24:21.201Z,84.41
2022-08-25T22:26:49.119Z,84.44
2022-08-25T22:29:24.743Z,85.08
2022-08-25T22:31:53.044Z,86.00
2022-08-25T22:34:30.317Z,86.39
2022-08-25T22:37:00.324Z,86.17
2022-08-25T22:39:27.913Z,86.46
2022-08-25T22:41:55.444Z,86.74
2022-08-25T22:44:23.322Z,85.09
2022-08-25T22:46:50.401Z,83.88
2022-08-25T22:49:17.750Z,83.05
2022-08-25T22:51:46.963Z,82.14
2022-08-25T22:54:15.269Z,80.84
2022-08-25T22:56:42.601Z,79.77
2022-08-25T22:59:12.810Z,78.89
2022-08-25T23:01:41.040Z,78.77
2022-08-25T23:04:08.335Z,81.36
2022-08-25T23:06:35.713Z,80.88
2022-08-25T23:09:05.399Z,79.42
2022-08-25T23:11:32.416Z,79.37
2022-08-25T23:14:05.702Z,79.44
2022-08-25T23:16:33.165Z,79.31
2022-08-25T23:19:00.747Z,81.98
2022-08-25T23:21:46.868Z,82.36
2022-08-25T23:24:29.593Z,82.08
2022-08-25T23:26:58.973Z,86.19
2022-08-25T23:29:27.231Z,85.62
2022-08-25T23:31:54.196Z,86.56
2022-08-25T23:34:22.181Z,86.72
2022-08-25T23:36:49.286Z,88.08
2022-08-25T23:39:16.430Z,88.51
2022-08-25T23:41:43.672Z,87.82
2022-08-25T23:44:11.896Z,88.22
2022-08-25T23:46:45.521Z,88.22
2022-08-25T23:49:18.116Z,87.54
2022-08-25T23:51:47.617Z,86.49
2022-08-25T23:54:16.267Z,86.59
2022-08-25T23:56:52.260Z,89.24
2022-08-25T23:59:24.200Z,90.16
